Weather at Rafha Domestic Airport

Public forecast

Using degrees Celsius for public forecast. Weather courtesy of forecast.io.

Current aviation weather report (METAR) for Rafha Domestic Airport

Retrieved 2021/04/13 20:00 UTC (13 minutes ago):

OERF 132000Z 03007KT CAVOK 21/M02 Q1017 NOSIG

Aviation forecast (TAF) for Rafha Domestic Airport

Forecast is more than 6 hours old.

Retrieved 2021/04/13 12:09 UTC (8 hours ago):

TAF OERF 131100Z 1312/1418 04013KT 6000 NSC